Time;durP1;ratioP1;P1;durP2;ratioP2;P2;SDS_P1;SDS_P2;PMS_P1;PMS_P2;Temp;Humidity;BMP_temperature;BMP_pressure;BME280_temperature;BME280_humidity;BME280_pressure;Samples;Min_cycle;Max_cycle;Signal;HPM_P1;HPM_P2
2023/03/17 00:00:44;;;;;;;13.02;7.65;;;;;;;;;;5115107;27;20136;-79
2023/03/17 00:03:22;;;;;;;14.20;8.13;;;;;;;;;;5114192;28;20027;-79
2023/03/17 00:05:47;;;;;;;15.07;8.85;;;;;;;;;;5097688;28;20070;-79
2023/03/17 00:08:27;;;;;;;13.80;8.52;;;;;;;;;;5114821;28;20069;-80
2023/03/17 00:10:52;;;;;;;11.93;7.22;;;;;;;;;;5097417;28;20039;-78
2023/03/17 00:13:18;;;;;;;10.98;7.28;;;;;;;;;;5114232;28;20020;-80
2023/03/17 00:15:54;;;;;;;11.95;7.47;;;;;;;;;;5079851;28;20035;-79
2023/03/17 00:18:20;;;;;;;12.15;7.35;;;;;;;;;;5097896;28;20393;-79
2023/03/17 00:20:45;;;;;;;14.88;8.32;;;;;;;;;;5096866;28;20078;-79
2023/03/17 00:23:16;;;;;;;11.95;7.70;;;;;;;;;;5096338;28;20073;-79
2023/03/17 00:25:42;;;;;;;13.25;7.93;;;;;;;;;;5114103;28;20068;-79
2023/03/17 00:28:21;;;;;;;14.25;7.85;;;;;;;;;;5095565;28;20028;-78
2023/03/17 00:30:47;;;;;;;15.82;8.65;;;;;;;;;;5113455;28;20024;-79
2023/03/17 00:33:14;;;;;;;13.70;9.07;;;;;;;;;;5096516;28;20020;-79
2023/03/17 00:35:40;;;;;;;15.77;9.60;;;;;;;;;;5114251;28;20351;-78
2023/03/17 00:38:06;;;;;;;15.05;9.73;;;;;;;;;;5113547;28;20021;-78
2023/03/17 00:40:31;;;;;;;17.45;11.25;;;;;;;;;;5113048;28;20471;-78
2023/03/17 00:42:58;;;;;;;12.82;8.23;;;;;;;;;;5113153;28;20444;-78
2023/03/17 00:45:24;;;;;;;15.52;8.55;;;;;;;;;;5096458;28;20031;-79
2023/03/17 00:47:51;;;;;;;16.15;9.65;;;;;;;;;;5113757;28;20035;-77
2023/03/17 00:50:20;;;;;;;15.52;8.25;;;;;;;;;;5113171;28;20027;-78
2023/03/17 00:52:46;;;;;;;13.23;8.50;;;;;;;;;;5096394;28;20027;-78
2023/03/17 00:55:11;;;;;;;13.57;9.20;;;;;;;;;;5096166;28;20030;-79
2023/03/17 00:57:38;;;;;;;12.43;9.23;;;;;;;;;;5096064;28;20035;-79
2023/03/17 01:00:04;;;;;;;12.90;8.57;;;;;;;;;;5096395;28;20402;-79
2023/03/17 01:02:29;;;;;;;15.68;9.98;;;;;;;;;;5096291;28;20023;-78
2023/03/17 01:04:56;;;;;;;14.73;8.25;;;;;;;;;;5113799;28;20131;-79
2023/03/17 01:07:23;;;;;;;14.35;9.82;;;;;;;;;;5114228;28;20023;-78
2023/03/17 01:09:48;;;;;;;13.77;8.98;;;;;;;;;;5112909;28;20031;-78
2023/03/17 01:12:14;;;;;;;12.95;8.07;;;;;;;;;;5096048;28;20164;-79
2023/03/17 01:14:39;;;;;;;10.07;6.80;;;;;;;;;;5113033;28;20106;-79
2023/03/17 01:17:15;;;;;;;11.63;7.53;;;;;;;;;;5096318;28;20031;-79
2023/03/17 01:19:41;;;;;;;12.65;7.80;;;;;;;;;;5095724;28;20047;-79
2023/03/17 01:22:07;;;;;;;9.85;6.53;;;;;;;;;;5114057;28;20448;-79
2023/03/17 01:24:33;;;;;;;9.07;6.20;;;;;;;;;;5112722;28;20456;-78
2023/03/17 01:26:58;;;;;;;8.13;5.55;;;;;;;;;;5095943;28;20051;-78
2023/03/17 01:29:24;;;;;;;8.30;5.60;;;;;;;;;;5111557;28;20024;-78
2023/03/17 01:31:49;;;;;;;8.43;6.25;;;;;;;;;;5113896;28;20096;-78
2023/03/17 01:34:15;;;;;;;8.80;6.03;;;;;;;;;;5113651;28;20020;-79
2023/03/17 01:36:40;;;;;;;8.02;5.82;;;;;;;;;;5112708;28;20020;-78
2023/03/17 01:39:06;;;;;;;8.32;5.65;;;;;;;;;;5112364;28;20131;-78
2023/03/17 01:41:33;;;;;;;7.43;4.63;;;;;;;;;;5095615;28;20027;-79
2023/03/17 01:43:58;;;;;;;7.82;5.32;;;;;;;;;;5112741;28;20032;-79
2023/03/17 01:46:34;;;;;;;8.43;5.80;;;;;;;;;;5096428;28;20516;-78
2023/03/17 01:49:04;;;;;;;9.10;6.30;;;;;;;;;;5112097;28;20441;-79
2023/03/17 01:51:43;;;;;;;8.45;5.60;;;;;;;;;;5113837;28;20023;-78
2023/03/17 01:54:13;;;;;;;9.82;6.22;;;;;;;;;;5112674;28;20028;-78
2023/03/17 01:56:39;;;;;;;9.13;6.68;;;;;;;;;;5095991;28;20023;-79
2023/03/17 01:59:06;;;;;;;10.90;5.93;;;;;;;;;;5112638;28;20118;-78
2023/03/17 02:01:37;;;;;;;9.48;5.65;;;;;;;;;;5095575;28;20096;-79
2023/03/17 02:04:03;;;;;;;7.55;5.25;;;;;;;;;;5113105;28;20081;-79
2023/03/17 02:06:29;;;;;;;8.93;6.72;;;;;;;;;;5099480;28;20066;-79
2023/03/17 02:08:56;;;;;;;8.05;5.32;;;;;;;;;;5098976;28;20047;-78
2023/03/17 02:11:21;;;;;;;9.68;5.75;;;;;;;;;;5099384;28;20030;-78
2023/03/17 02:13:47;;;;;;;8.85;6.50;;;;;;;;;;5082294;28;20024;-78
2023/03/17 02:16:14;;;;;;;9.63;5.93;;;;;;;;;;5116156;27;20373;-79
2023/03/17 02:18:40;;;;;;;8.40;5.20;;;;;;;;;;5099033;28;20468;-79
2023/03/17 02:21:26;;;;;;;8.82;5.90;;;;;;;;;;5117071;28;20092;-77
2023/03/17 02:23:52;;;;;;;9.38;6.03;;;;;;;;;;5115885;28;20035;-78
2023/03/17 02:26:18;;;;;;;7.80;5.53;;;;;;;;;;5115692;28;20015;-79
2023/03/17 02:28:44;;;;;;;9.02;5.68;;;;;;;;;;5098677;28;20027;-79
2023/03/17 02:31:11;;;;;;;13.93;6.47;;;;;;;;;;5114426;28;20026;-79
2023/03/17 02:33:37;;;;;;;9.00;5.95;;;;;;;;;;5115370;28;20047;-79
2023/03/17 02:36:03;;;;;;;8.65;5.97;;;;;;;;;;5117161;28;20020;-79
2023/03/17 02:38:28;;;;;;;10.20;6.72;;;;;;;;;;5115584;28;20540;-79
2023/03/17 02:40:53;;;;;;;9.05;6.10;;;;;;;;;;5081365;28;20524;-78
2023/03/17 02:43:19;;;;;;;9.32;6.20;;;;;;;;;;5115507;28;20353;-78
2023/03/17 02:45:44;;;;;;;9.20;6.18;;;;;;;;;;5115241;28;20026;-79
2023/03/17 02:48:10;;;;;;;9.93;6.30;;;;;;;;;;5098158;28;20429;-78
2023/03/17 02:50:36;;;;;;;8.27;5.50;;;;;;;;;;5116339;28;20020;-78
2023/03/17 02:53:01;;;;;;;9.43;6.53;;;;;;;;;;5098189;28;20467;-78
2023/03/17 02:55:27;;;;;;;9.13;6.38;;;;;;;;;;5115239;28;20054;-79
2023/03/17 02:57:52;;;;;;;9.60;6.82;;;;;;;;;;5116580;28;20019;-79
2023/03/17 03:00:18;;;;;;;9.50;5.97;;;;;;;;;;5116244;28;20092;-79
2023/03/17 03:02:43;;;;;;;8.70;6.20;;;;;;;;;;5116341;28;20406;-79
2023/03/17 03:05:09;;;;;;;8.73;5.93;;;;;;;;;;5097894;28;20422;-78
2023/03/17 03:07:35;;;;;;;10.32;7.28;;;;;;;;;;5116091;28;20024;-79
2023/03/17 03:10:01;;;;;;;11.15;7.38;;;;;;;;;;5114891;28;20019;-79
2023/03/17 03:12:27;;;;;;;11.32;7.22;;;;;;;;;;5114820;28;20023;-79
2023/03/17 03:14:52;;;;;;;10.75;7.15;;;;;;;;;;5114565;28;20032;-78
2023/03/17 03:17:18;;;;;;;13.10;7.32;;;;;;;;;;5114695;28;20035;-79
2023/03/17 03:19:43;;;;;;;12.85;7.40;;;;;;;;;;5097933;28;20122;-79
2023/03/17 03:22:09;;;;;;;10.95;7.20;;;;;;;;;;5114835;28;20088;-78
2023/03/17 03:24:35;;;;;;;10.48;6.60;;;;;;;;;;5098183;28;20027;-79
2023/03/17 03:27:00;;;;;;;13.07;7.47;;;;;;;;;;5114617;28;20028;-79
2023/03/17 03:29:26;;;;;;;10.73;7.10;;;;;;;;;;5115900;27;20031;-79
2023/03/17 03:31:51;;;;;;;14.50;9.25;;;;;;;;;;5115845;27;20036;-79
2023/03/17 03:34:16;;;;;;;12.98;7.75;;;;;;;;;;5114378;28;20031;-79
2023/03/17 03:36:42;;;;;;;21.00;9.68;;;;;;;;;;5114330;28;20074;-78
2023/03/17 03:39:08;;;;;;;19.33;11.27;;;;;;;;;;5115337;28;20079;-78
2023/03/17 03:41:34;;;;;;;17.25;10.00;;;;;;;;;;5114429;28;20368;-79
2023/03/17 03:43:59;;;;;;;17.42;11.80;;;;;;;;;;5114920;28;20103;-79
2023/03/17 03:46:25;;;;;;;18.30;10.90;;;;;;;;;;5114122;28;20031;-79
2023/03/17 03:48:51;;;;;;;16.20;10.95;;;;;;;;;;5097118;28;20028;-79
2023/03/17 03:51:16;;;;;;;16.42;10.98;;;;;;;;;;5097041;28;20038;-79
2023/03/17 03:53:42;;;;;;;21.45;14.10;;;;;;;;;;5114061;28;20106;-79
2023/03/17 03:56:07;;;;;;;24.83;16.10;;;;;;;;;;5097259;28;20414;-78
2023/03/17 03:58:32;;;;;;;19.73;12.63;;;;;;;;;;5113720;28;20031;-79
2023/03/17 04:00:58;;;;;;;18.33;12.05;;;;;;;;;;5095331;28;20039;-79
2023/03/17 04:03:23;;;;;;;16.95;11.20;;;;;;;;;;5113711;28;20023;-79
2023/03/17 04:05:49;;;;;;;15.38;10.10;;;;;;;;;;5114963;28;20027;-78
2023/03/17 04:08:15;;;;;;;16.67;10.32;;;;;;;;;;5113848;28;20035;-78
2023/03/17 04:10:40;;;;;;;15.70;10.30;;;;;;;;;;5096694;28;20043;-79
2023/03/17 04:13:07;;;;;;;17.30;10.38;;;;;;;;;;5096317;28;20034;-79
2023/03/17 04:15:32;;;;;;;14.88;9.95;;;;;;;;;;5113668;28;20138;-79
2023/03/17 04:17:58;;;;;;;17.73;10.48;;;;;;;;;;5096992;28;20114;-78
2023/03/17 04:20:23;;;;;;;17.17;10.05;;;;;;;;;;5114618;28;20032;-79
2023/03/17 04:22:49;;;;;;;15.48;10.18;;;;;;;;;;5113734;28;20089;-78
2023/03/17 04:25:14;;;;;;;15.90;9.63;;;;;;;;;;5113383;28;20483;-79
2023/03/17 04:27:43;;;;;;;16.35;10.20;;;;;;;;;;5096305;28;20055;-78
2023/03/17 04:30:12;;;;;;;15.02;10.02;;;;;;;;;;5113665;28;20553;-79
2023/03/17 04:32:38;;;;;;;16.77;10.10;;;;;;;;;;5113425;28;20392;-79
2023/03/17 04:35:04;;;;;;;15.00;10.05;;;;;;;;;;5096595;28;20039;-78
2023/03/17 04:37:29;;;;;;;17.65;11.20;;;;;;;;;;5147755;27;20043;-79
2023/03/17 04:39:55;;;;;;;17.73;10.32;;;;;;;;;;5114270;28;20514;-79
2023/03/17 04:42:20;;;;;;;18.05;10.52;;;;;;;;;;5114148;28;20489;-79
2023/03/17 04:44:45;;;;;;;20.90;10.85;;;;;;;;;;5096865;28;20032;-79
2023/03/17 04:47:11;;;;;;;42.63;17.83;;;;;;;;;;5114296;28;20074;-79
2023/03/17 04:49:37;;;;;;;37.40;17.90;;;;;;;;;;5113176;28;20445;-79
2023/03/17 04:52:02;;;;;;;36.25;16.02;;;;;;;;;;5114394;28;20073;-79
2023/03/17 04:54:28;;;;;;;28.15;13.68;;;;;;;;;;5113044;28;20031;-79
2023/03/17 04:56:53;;;;;;;25.30;12.15;;;;;;;;;;5114528;28;20027;-79
2023/03/17 04:59:18;;;;;;;16.80;8.77;;;;;;;;;;5114602;28;20024;-79
2023/03/17 05:01:44;;;;;;;13.45;7.88;;;;;;;;;;5113398;28;20039;-79
2023/03/17 05:04:09;;;;;;;13.43;8.20;;;;;;;;;;5112895;28;20034;-79
2023/03/17 05:06:36;;;;;;;13.85;8.35;;;;;;;;;;5114524;28;20136;-78
2023/03/17 05:09:01;;;;;;;21.25;11.85;;;;;;;;;;5113212;28;20024;-79
2023/03/17 05:11:27;;;;;;;17.88;10.70;;;;;;;;;;5110265;28;20020;-79
2023/03/17 05:13:53;;;;;;;17.23;9.65;;;;;;;;;;5113966;28;20038;-79
2023/03/17 05:16:18;;;;;;;11.38;7.72;;;;;;;;;;5114305;28;20114;-79
2023/03/17 05:18:44;;;;;;;12.73;8.30;;;;;;;;;;5114191;28;20106;-79
2023/03/17 05:21:09;;;;;;;14.68;8.40;;;;;;;;;;5113898;28;20035;-78
2023/03/17 05:23:34;;;;;;;11.52;7.80;;;;;;;;;;5113055;28;20077;-78
2023/03/17 05:26:00;;;;;;;11.73;7.78;;;;;;;;;;5113996;28;20016;-78
2023/03/17 05:28:26;;;;;;;13.15;8.65;;;;;;;;;;5112836;28;20079;-77
2023/03/17 05:30:53;;;;;;;16.05;9.80;;;;;;;;;;5114070;28;20030;-83
2023/03/17 05:33:19;;;;;;;13.63;8.10;;;;;;;;;;5114056;28;20019;-82
2023/03/17 05:35:45;;;;;;;13.63;7.22;;;;;;;;;;5100062;28;20031;-82
2023/03/17 05:38:11;;;;;;;11.20;7.82;;;;;;;;;;5081660;28;20042;-82
2023/03/17 05:40:36;;;;;;;15.02;9.20;;;;;;;;;;5099220;28;20046;-82
2023/03/17 05:43:03;;;;;;;10.90;7.75;;;;;;;;;;5112993;28;20020;-82
2023/03/17 05:45:29;;;;;;;15.65;10.23;;;;;;;;;;5112840;28;20080;-82
2023/03/17 05:47:57;;;;;;;15.75;8.95;;;;;;;;;;5113950;27;20096;-82
2023/03/17 05:50:22;;;;;;;17.25;10.35;;;;;;;;;;5133258;27;20045;-82
2023/03/17 05:52:50;;;;;;;13.57;8.68;;;;;;;;;;5115743;27;20404;-82
2023/03/17 05:55:16;;;;;;;14.27;9.55;;;;;;;;;;5110534;28;20088;-82
2023/03/17 05:57:42;;;;;;;16.02;10.18;;;;;;;;;;5098696;28;20032;-82
2023/03/17 06:00:08;;;;;;;18.17;12.20;;;;;;;;;;5096354;28;20041;-77
2023/03/17 06:02:34;;;;;;;19.75;12.15;;;;;;;;;;5104913;27;20035;-78
2023/03/17 06:05:00;;;;;;;14.73;9.25;;;;;;;;;;5103216;28;20023;-80
2023/03/17 06:07:27;;;;;;;13.10;8.63;;;;;;;;;;5101599;28;20345;-79
2023/03/17 06:09:56;;;;;;;14.68;9.00;;;;;;;;;;5111018;28;20039;-78
2023/03/17 06:12:21;;;;;;;11.70;7.60;;;;;;;;;;5107957;28;20024;-77
2023/03/17 06:14:47;;;;;;;13.10;8.38;;;;;;;;;;5110088;28;20084;-79
2023/03/17 06:17:13;;;;;;;11.77;7.93;;;;;;;;;;5111548;28;20037;-77
2023/03/17 06:19:38;;;;;;;15.18;9.05;;;;;;;;;;5111448;28;20084;-78
2023/03/17 06:22:04;;;;;;;15.27;9.73;;;;;;;;;;5110879;28;20438;-76
2023/03/17 06:24:30;;;;;;;39.95;23.23;;;;;;;;;;5110673;28;20088;-77
2023/03/17 06:27:01;;;;;;;28.75;15.10;;;;;;;;;;5101322;28;20089;-78
2023/03/17 06:29:30;;;;;;;39.30;22.08;;;;;;;;;;5114208;28;20122;-78
2023/03/17 06:31:56;;;;;;;64.60;34.40;;;;;;;;;;5115830;28;20409;-78
2023/03/17 06:34:22;;;;;;;51.22;26.60;;;;;;;;;;5111412;28;20020;-76
2023/03/17 06:36:48;;;;;;;80.75;47.78;;;;;;;;;;5110002;28;20456;-78
2023/03/17 06:39:14;;;;;;;66.07;36.00;;;;;;;;;;5115472;28;20408;-77
2023/03/17 06:41:40;;;;;;;51.28;27.80;;;;;;;;;;5113942;28;20039;-77
2023/03/17 06:44:06;;;;;;;57.70;27.85;;;;;;;;;;5116145;28;20035;-77
2023/03/17 06:46:36;;;;;;;44.03;22.42;;;;;;;;;;5096847;28;20321;-76
2023/03/17 06:49:06;;;;;;;46.35;23.88;;;;;;;;;;5095756;28;20031;-78
2023/03/17 06:51:36;;;;;;;;;;;;;;;;;;5109997;28;20023;-79
2023/03/17 06:54:08;;;;;;;41.80;22.25;;;;;;;;;;5110993;28;19911;-78
2023/03/17 06:56:33;;;;;;;32.17;17.00;;;;;;;;;;5112860;28;20057;-75
2023/03/17 06:58:59;;;;;;;31.08;18.63;;;;;;;;;;5114400;28;20015;-76
2023/03/17 07:01:26;;;;;;;34.00;20.40;;;;;;;;;;5107186;28;20068;-78
2023/03/17 07:03:51;;;;;;;29.25;17.33;;;;;;;;;;5104110;28;20115;-76
2023/03/17 07:06:17;;;;;;;27.25;15.13;;;;;;;;;;5109537;27;20111;-76
2023/03/17 07:08:43;;;;;;;36.72;20.65;;;;;;;;;;5138355;27;20032;-76
2023/03/17 07:11:08;;;;;;;31.33;19.10;;;;;;;;;;5106304;28;20089;-77
2023/03/17 07:13:36;;;;;;;33.35;19.30;;;;;;;;;;5110891;28;20066;-76
2023/03/17 07:16:02;;;;;;;38.67;24.40;;;;;;;;;;5109418;28;20050;-78
2023/03/17 07:18:32;;;;;;;26.48;16.77;;;;;;;;;;5108815;28;20664;-78
2023/03/17 07:20:59;;;;;;;32.00;18.40;;;;;;;;;;5109217;28;20552;-77
2023/03/17 07:23:25;;;;;;;34.95;22.05;;;;;;;;;;5110651;28;20350;-77
2023/03/17 07:25:51;;;;;;;27.83;16.38;;;;;;;;;;5104012;28;20077;-77
2023/03/17 07:28:18;;;;;;;27.05;16.30;;;;;;;;;;5089106;28;20046;-79
2023/03/17 07:30:46;;;;;;;23.75;13.50;;;;;;;;;;5108496;28;20530;-77
2023/03/17 07:33:12;;;;;;;22.77;14.98;;;;;;;;;;5107280;28;20046;-77
2023/03/17 07:35:38;;;;;;;28.63;15.55;;;;;;;;;;5092588;28;20509;-78
2023/03/17 07:38:04;;;;;;;27.15;15.88;;;;;;;;;;5110108;28;20023;-76
2023/03/17 07:40:30;;;;;;;32.08;17.38;;;;;;;;;;5106666;28;20042;-76
2023/03/17 07:42:56;;;;;;;32.47;17.45;;;;;;;;;;5108769;28;20038;-77
2023/03/17 07:45:23;;;;;;;52.60;26.13;;;;;;;;;;5110044;28;20111;-78
2023/03/17 07:47:56;;;;;;;39.72;21.77;;;;;;;;;;5111282;28;20445;-78
2023/03/17 07:50:22;;;;;;;34.55;19.83;;;;;;;;;;5112123;28;20028;-78
2023/03/17 07:52:48;;;;;;;33.75;19.08;;;;;;;;;;5106824;28;20453;-77
2023/03/17 07:55:14;;;;;;;28.92;16.55;;;;;;;;;;5110914;27;20036;-75
2023/03/17 07:57:40;;;;;;;31.00;17.85;;;;;;;;;;5111282;27;20039;-77
2023/03/17 08:00:09;;;;;;;30.08;18.10;;;;;;;;;;5108800;28;20031;-78
2023/03/17 08:02:35;;;;;;;34.78;23.52;;;;;;;;;;5123357;27;20031;-78
2023/03/17 08:05:02;;;;;;;26.58;17.02;;;;;;;;;;5124253;27;20079;-80
2023/03/17 08:07:28;;;;;;;28.23;15.20;;;;;;;;;;5113733;27;20045;-79
2023/03/17 08:09:53;;;;;;;24.95;13.65;;;;;;;;;;5108494;28;20122;-78
2023/03/17 08:12:19;;;;;;;25.98;13.68;;;;;;;;;;5113885;27;20578;-77
2023/03/17 08:14:48;;;;;;;36.75;17.63;;;;;;;;;;5108791;28;20103;-81
2023/03/17 08:17:13;;;;;;;24.30;13.55;;;;;;;;;;5124718;27;20038;-79
2023/03/17 08:19:40;;;;;;;33.25;16.25;;;;;;;;;;5123322;27;20373;-78
2023/03/17 08:22:05;;;;;;;28.58;14.10;;;;;;;;;;5106445;27;20027;-80
2023/03/17 08:24:31;;;;;;;47.10;20.45;;;;;;;;;;5109739;28;20108;-78
2023/03/17 08:26:57;;;;;;;43.97;19.50;;;;;;;;;;5110829;28;20024;-79
2023/03/17 08:29:22;;;;;;;38.67;20.95;;;;;;;;;;5119392;27;20023;-78
2023/03/17 08:31:51;;;;;;;35.40;18.30;;;;;;;;;;5130361;27;20120;-75
2023/03/17 08:34:17;;;;;;;25.20;13.48;;;;;;;;;;5137321;27;20670;-76
2023/03/17 08:36:43;;;;;;;30.88;15.70;;;;;;;;;;5110154;28;20124;-78
2023/03/17 08:39:09;;;;;;;31.55;15.25;;;;;;;;;;5089631;28;20485;-75
2023/03/17 08:41:35;;;;;;;21.60;12.10;;;;;;;;;;5109720;28;20027;-77
2023/03/17 08:44:01;;;;;;;22.95;12.63;;;;;;;;;;5109574;28;20031;-79
2023/03/17 08:46:28;;;;;;;27.00;13.98;;;;;;;;;;5099585;28;20032;-79
2023/03/17 08:48:55;;;;;;;24.17;12.32;;;;;;;;;;5099770;28;20049;-79
2023/03/17 08:51:21;;;;;;;25.52;12.40;;;;;;;;;;5108434;28;20031;-77
2023/03/17 08:53:47;;;;;;;21.77;11.40;;;;;;;;;;5099189;28;20500;-75
2023/03/17 08:56:12;;;;;;;22.17;11.25;;;;;;;;;;5102202;28;20040;-78
2023/03/17 08:58:39;;;;;;;27.10;12.52;;;;;;;;;;5096038;28;20039;-75
2023/03/17 09:01:05;;;;;;;25.90;13.23;;;;;;;;;;5106632;28;20039;-80
2023/03/17 09:03:34;;;;;;;21.38;11.98;;;;;;;;;;5090434;28;20497;-78
2023/03/17 09:06:03;;;;;;;24.02;12.48;;;;;;;;;;5102832;28;20173;-76
2023/03/17 09:08:33;;;;;;;18.90;10.77;;;;;;;;;;5103757;28;20651;-77
2023/03/17 09:11:00;;;;;;;18.95;10.18;;;;;;;;;;5117809;28;20035;-78
2023/03/17 09:13:25;;;;;;;16.27;10.77;;;;;;;;;;5108140;28;20023;-78
2023/03/17 09:15:51;;;;;;;18.70;11.25;;;;;;;;;;5111271;28;20027;-77
2023/03/17 09:18:18;;;;;;;24.60;11.43;;;;;;;;;;5111209;28;20023;-77
2023/03/17 09:20:43;;;;;;;15.90;9.70;;;;;;;;;;5111729;28;20379;-77
2023/03/17 09:23:09;;;;;;;17.45;10.55;;;;;;;;;;5112772;28;20031;-76
2023/03/17 09:25:35;;;;;;;16.30;9.57;;;;;;;;;;5077150;28;20032;-75
2023/03/17 09:28:01;;;;;;;18.20;11.73;;;;;;;;;;5109972;28;20433;-76
2023/03/17 09:30:26;;;;;;;34.63;17.27;;;;;;;;;;5111027;28;20034;-78
2023/03/17 09:32:52;;;;;;;49.13;20.98;;;;;;;;;;5095153;28;20111;-78
2023/03/17 09:35:18;;;;;;;88.57;31.85;;;;;;;;;;5112589;28;20020;-76
2023/03/17 09:37:43;;;;;;;40.13;19.65;;;;;;;;;;5097426;28;20157;-76
2023/03/17 09:40:11;;;;;;;51.40;24.42;;;;;;;;;;5098125;28;20345;-76
2023/03/17 09:42:42;;;;;;;20.80;11.77;;;;;;;;;;5133358;27;20118;-76
2023/03/17 09:45:16;;;;;;;34.90;17.23;;;;;;;;;;5098276;28;20028;-76
2023/03/17 09:48:09;;;;;;;17.90;10.43;;;;;;;;;;5101716;28;20084;-77
2023/03/17 09:50:51;;;;;;;18.38;11.05;;;;;;;;;;5113057;28;20066;-75
2023/03/17 09:53:41;;;;;;;17.65;10.77;;;;;;;;;;5109292;28;20098;-77
2023/03/17 09:56:11;;;;;;;18.10;11.63;;;;;;;;;;5103573;28;20149;-77
2023/03/17 09:58:37;;;;;;;19.45;11.15;;;;;;;;;;5091834;28;20210;-77
2023/03/17 10:01:04;;;;;;;20.80;11.68;;;;;;;;;;5106475;28;20106;-78
2023/03/17 10:03:30;;;;;;;18.90;11.18;;;;;;;;;;5078059;28;20023;-78
2023/03/17 10:06:19;;;;;;;20.15;11.57;;;;;;;;;;5077765;28;20026;-75
2023/03/17 10:08:56;;;;;;;19.08;10.85;;;;;;;;;;5100738;28;20040;-77
2023/03/17 10:11:31;;;;;;;16.08;10.30;;;;;;;;;;5110474;28;20023;-77
2023/03/17 10:14:03;;;;;;;21.25;9.82;;;;;;;;;;5109926;28;20126;-77
2023/03/17 10:16:29;;;;;;;19.40;11.98;;;;;;;;;;5111210;28;20024;-78
2023/03/17 10:19:03;;;;;;;21.00;11.48;;;;;;;;;;5112876;28;20054;-78
2023/03/17 10:21:32;;;;;;;16.98;10.70;;;;;;;;;;5110482;28;20031;-77
2023/03/17 10:24:16;;;;;;;19.33;10.65;;;;;;;;;;5094577;28;20027;-76
2023/03/17 10:26:44;;;;;;;15.98;9.98;;;;;;;;;;5078123;28;20130;-79
2023/03/17 10:29:20;;;;;;;18.45;10.25;;;;;;;;;;5112352;28;20062;-77
2023/03/17 10:31:46;;;;;;;19.27;11.75;;;;;;;;;;5104806;28;20032;-78
2023/03/17 10:34:44;;;;;;;28.30;12.70;;;;;;;;;;5095409;28;20035;-76
2023/03/17 10:37:16;;;;;;;30.45;14.88;;;;;;;;;;5062522;28;20114;-78
2023/03/17 10:39:54;;;;;;;24.20;14.10;;;;;;;;;;5113673;28;20046;-78
2023/03/17 10:42:25;;;;;;;26.75;14.55;;;;;;;;;;5115126;28;20027;-78
2023/03/17 10:44:55;;;;;;;35.90;15.02;;;;;;;;;;5110919;28;20418;-77
2023/03/17 10:47:38;;;;;;;32.03;15.80;;;;;;;;;;5098994;28;20034;-77
2023/03/17 10:50:20;;;;;;;37.35;19.50;;;;;;;;;;5114647;28;20087;-78
2023/03/17 10:52:46;;;;;;;38.42;19.42;;;;;;;;;;5104526;28;20039;-78
2023/03/17 10:55:14;;;;;;;29.13;15.85;;;;;;;;;;5113252;28;20023;-78
2023/03/17 10:57:39;;;;;;;29.45;15.20;;;;;;;;;;5112082;28;20198;-77
2023/03/17 11:00:13;;;;;;;22.85;13.38;;;;;;;;;;5109334;28;20531;-77
2023/03/17 11:02:48;;;;;;;24.80;12.75;;;;;;;;;;5109803;28;20084;-76
2023/03/17 11:05:25;;;;;;;25.55;14.15;;;;;;;;;;5109658;28;20095;-77
2023/03/17 11:07:56;;;;;;;29.17;15.05;;;;;;;;;;5111142;28;20032;-77
2023/03/17 11:10:23;;;;;;;24.20;13.02;;;;;;;;;;5093806;28;20055;-78
2023/03/17 11:12:57;;;;;;;22.38;12.18;;;;;;;;;;5144100;27;20036;-77
2023/03/17 11:15:23;;;;;;;20.02;10.45;;;;;;;;;;5110013;28;20422;-78
2023/03/17 11:17:59;;;;;;;16.75;10.02;;;;;;;;;;5075881;28;20115;-78
2023/03/17 11:20:37;;;;;;;16.25;9.18;;;;;;;;;;5143166;27;20038;-78
2023/03/17 11:23:52;;;;;;;16.30;9.77;;;;;;;;;;5109948;28;20027;-78
2023/03/17 11:26:40;;;;;;;19.52;10.40;;;;;;;;;;5099154;28;20038;-78
2023/03/17 11:29:18;;;;;;;15.27;9.65;;;;;;;;;;5129623;27;20027;-77
2023/03/17 11:32:13;;;;;;;19.60;10.95;;;;;;;;;;5113683;28;20310;-77
2023/03/17 11:34:47;;;;;;;17.25;10.15;;;;;;;;;;5113618;28;20035;-77
2023/03/17 11:37:40;;;;;;;19.85;11.43;;;;;;;;;;5114091;28;20050;-77
2023/03/17 11:40:06;;;;;;;16.77;10.32;;;;;;;;;;5114405;27;20050;-75
2023/03/17 11:42:54;;;;;;;19.60;9.88;;;;;;;;;;5113396;28;20036;-76
2023/03/17 11:45:58;;;;;;;15.50;9.75;;;;;;;;;;5107427;28;20035;-76
2023/03/17 11:48:53;;;;;;;17.50;10.43;;;;;;;;;;5076351;28;20049;-77
2023/03/17 11:51:38;;;;;;;20.35;11.02;;;;;;;;;;5101976;28;20062;-75
2023/03/17 11:54:28;;;;;;;44.92;22.65;;;;;;;;;;5111123;28;20036;-77
2023/03/17 11:57:00;;;;;;;19.83;10.60;;;;;;;;;;5102540;28;20515;-77
2023/03/17 11:59:40;;;;;;;22.95;12.88;;;;;;;;;;5093367;28;20027;-78
2023/03/17 12:02:40;;;;;;;32.13;16.10;;;;;;;;;;5092722;28;20039;-79
2023/03/17 12:05:08;;;;;;;21.37;12.57;;;;;;;;;;5108771;28;20035;-78
2023/03/17 12:07:40;;;;;;;29.13;13.95;;;;;;;;;;5088603;28;20290;-75
2023/03/17 12:10:19;;;;;;;21.10;11.52;;;;;;;;;;5089408;28;20032;-77
2023/03/17 12:13:29;;;;;;;21.60;10.55;;;;;;;;;;5095793;28;20488;-78
2023/03/17 12:16:16;;;;;;;19.92;11.07;;;;;;;;;;5079147;28;20040;-77
2023/03/17 12:18:59;;;;;;;20.27;11.88;;;;;;;;;;5112222;28;20027;-77
2023/03/17 12:21:36;;;;;;;21.58;11.82;;;;;;;;;;5108333;28;20035;-77
2023/03/17 12:24:22;;;;;;;17.73;9.82;;;;;;;;;;5089644;28;20459;-77
2023/03/17 12:27:08;;;;;;;19.00;10.07;;;;;;;;;;5088401;28;20119;-78
2023/03/17 12:29:50;;;;;;;17.58;9.73;;;;;;;;;;5088216;28;20043;-76
2023/03/17 12:32:22;;;;;;;18.92;9.60;;;;;;;;;;5074137;28;20032;-78
2023/03/17 12:34:51;;;;;;;18.13;9.75;;;;;;;;;;5074039;28;20576;-78
2023/03/17 12:37:16;;;;;;;19.20;10.43;;;;;;;;;;5090393;28;20123;-78
2023/03/17 12:39:54;;;;;;;15.73;9.52;;;;;;;;;;5073499;28;20122;-76
2023/03/17 12:42:45;;;;;;;19.30;10.52;;;;;;;;;;5063029;28;20180;-76
2023/03/17 12:45:48;;;;;;;22.40;12.07;;;;;;;;;;5089890;28;20119;-78
2023/03/17 12:48:17;;;;;;;21.80;11.57;;;;;;;;;;5088674;28;20482;-77
2023/03/17 12:50:49;;;;;;;59.55;23.83;;;;;;;;;;5089293;28;20035;-75
2023/03/17 12:53:18;;;;;;;33.67;13.57;;;;;;;;;;5107501;28;20030;-75
2023/03/17 12:55:44;;;;;;;33.78;15.00;;;;;;;;;;5109249;28;20477;-76
2023/03/17 12:58:31;;;;;;;18.13;10.68;;;;;;;;;;5109199;28;20051;-76
2023/03/17 13:01:36;;;;;;;21.80;10.82;;;;;;;;;;5094197;28;20392;-75
2023/03/17 13:04:20;;;;;;;22.70;12.68;;;;;;;;;;5093544;27;20039;-76
2023/03/17 13:07:05;;;;;;;21.02;12.18;;;;;;;;;;5109316;28;20035;-75
2023/03/17 13:09:30;;;;;;;24.80;13.10;;;;;;;;;;5109707;28;20078;-75
2023/03/17 13:11:56;;;;;;;24.02;12.75;;;;;;;;;;5109893;28;20067;-76
2023/03/17 13:14:41;;;;;;;22.00;12.25;;;;;;;;;;5109920;28;20066;-76
2023/03/17 13:17:16;;;;;;;27.67;14.07;;;;;;;;;;5109009;28;20028;-75
2023/03/17 13:20:08;;;;;;;28.98;14.27;;;;;;;;;;5110123;28;20059;-76
2023/03/17 13:22:35;;;;;;;25.85;14.32;;;;;;;;;;5112264;28;20028;-77
2023/03/17 13:25:31;;;;;;;34.72;16.70;;;;;;;;;;5111162;28;20030;-75
2023/03/17 13:28:12;;;;;;;32.78;16.73;;;;;;;;;;5084298;27;20476;-76
2023/03/17 13:30:38;;;;;;;32.80;15.82;;;;;;;;;;5108361;28;20350;-75
2023/03/17 13:33:08;;;;;;;34.53;16.10;;;;;;;;;;5111570;28;20027;-76
2023/03/17 13:36:17;;;;;;;34.67;16.85;;;;;;;;;;5110087;28;20134;-76
2023/03/17 13:38:54;;;;;;;32.72;15.75;;;;;;;;;;5065877;28;20457;-75
2023/03/17 13:41:36;;;;;;;29.98;15.15;;;;;;;;;;5111643;28;20065;-75
2023/03/17 13:44:23;;;;;;;35.25;16.88;;;;;;;;;;5109576;28;20107;-76
2023/03/17 13:46:48;;;;;;;30.88;16.00;;;;;;;;;;5112343;28;20070;-75
2023/03/17 13:49:17;;;;;;;30.50;15.35;;;;;;;;;;5111213;28;20081;-76
2023/03/17 13:51:43;;;;;;;51.25;21.13;;;;;;;;;;5113007;28;20388;-77
2023/03/17 13:54:38;;;;;;;33.30;14.63;;;;;;;;;;5111910;28;20046;-75
2023/03/17 13:57:39;;;;;;;30.17;15.10;;;;;;;;;;5109575;28;20024;-76
2023/03/17 14:00:24;;;;;;;29.10;13.32;;;;;;;;;;5029762;28;20060;-76
2023/03/17 14:02:56;;;;;;;29.35;14.50;;;;;;;;;;5123815;27;20568;-75
2023/03/17 14:05:24;;;;;;;42.55;19.88;;;;;;;;;;5132446;27;20039;-76
2023/03/17 14:08:14;;;;;;;70.43;33.90;;;;;;;;;;5131533;27;20105;-77
2023/03/17 14:10:39;;;;;;;51.33;22.25;;;;;;;;;;5100206;28;20027;-78
2023/03/17 14:13:27;;;;;;;80.53;33.13;;;;;;;;;;5115723;28;20085;-76
2023/03/17 14:15:59;;;;;;;30.15;14.65;;;;;;;;;;5133980;27;20384;-76
2023/03/17 14:18:38;;;;;;;38.25;15.50;;;;;;;;;;5115958;27;20084;-76
2023/03/17 14:21:05;;;;;;;31.73;14.73;;;;;;;;;;5098534;28;20027;-76
2023/03/17 14:23:33;;;;;;;70.82;31.70;;;;;;;;;;5132719;27;20096;-75
2023/03/17 14:25:59;;;;;;;33.55;16.00;;;;;;;;;;5116998;28;20089;-73
2023/03/17 14:28:30;;;;;;;30.45;14.88;;;;;;;;;;5098662;28;20028;-78
2023/03/17 14:31:02;;;;;;;32.22;15.25;;;;;;;;;;5132798;27;20024;-75
2023/03/17 14:33:29;;;;;;;36.88;16.73;;;;;;;;;;5115903;28;20429;-75
2023/03/17 14:35:56;;;;;;;33.55;15.73;;;;;;;;;;5118943;27;20055;-77
2023/03/17 14:38:25;;;;;;;37.08;15.40;;;;;;;;;;5107944;28;20043;-78
2023/03/17 14:41:00;;;;;;;30.42;12.95;;;;;;;;;;5116190;28;20048;-76